createdAt,value
2022-08-02T08:10:22.606Z,45.15
2022-08-02T08:13:25.818Z,51.05
2022-08-02T08:16:29.386Z,47.62
2022-08-02T08:19:50.259Z,47.60
2022-08-02T08:22:54.862Z,44.78
2022-08-02T08:25:57.885Z,45.60
2022-08-02T08:29:01.957Z,50.38
2022-08-02T08:32:05.312Z,50.60
2022-08-02T08:35:08.521Z,54.20
2022-08-02T08:38:11.705Z,49.95
2022-08-02T08:41:19.050Z,50.38
2022-08-02T08:44:22.876Z,53.95
2022-08-02T08:47:39.509Z,53.30
2022-08-02T08:50:52.991Z,56.08
2022-08-02T08:53:59.483Z,53.03
2022-08-02T08:57:05.682Z,53.67
2022-08-02T09:00:10.620Z,52.58
2022-08-02T09:03:18.195Z,50.05
2022-08-02T09:06:20.983Z,55.78
2022-08-02T09:09:24.418Z,53.33
2022-08-02T09:12:27.106Z,50.22
2022-08-02T09:15:30.251Z,45.88
2022-08-02T09:18:39.906Z,52.95
2022-08-02T09:21:42.888Z,62.30
2022-08-02T09:24:54.229Z,56.83
2022-08-02T09:27:57.238Z,64.15
2022-08-02T09:31:12.803Z,57.10
2022-08-02T09:34:15.971Z,51.17
2022-08-02T09:37:31.216Z,55.42
2022-08-02T09:40:37.276Z,57.30
2022-08-02T09:43:52.443Z,59.20
2022-08-02T09:47:19.062Z,59.13
2022-08-02T09:50:25.884Z,67.30
2022-08-02T09:53:31.130Z,68.53
2022-08-02T09:56:55.061Z,62.38
2022-08-02T09:59:58.821Z,61.45
2022-08-02T10:03:11.088Z,65.03
2022-08-02T10:06:47.098Z,66.30
2022-08-02T11:01:48.163Z,70.85
2022-08-02T11:04:51.357Z,75.82
2022-08-02T11:07:54.149Z,69.32
2022-08-02T11:11:17.576Z,68.40
2022-08-02T11:14:21.529Z,71.12
2022-08-02T11:17:25.271Z,77.30
2022-08-02T11:20:28.910Z,81.32
2022-08-02T11:23:44.505Z,77.10
2022-08-02T11:26:48.672Z,78.18
2022-08-02T11:29:51.842Z,84.72
2022-08-02T11:32:59.001Z,75.55
2022-08-02T11:36:04.972Z,72.22
2022-08-02T11:39:16.126Z,78.68
2022-08-02T11:42:19.123Z,70.22
2022-08-02T11:45:29.742Z,68.82
2022-08-02T11:48:40.912Z,79.57
2022-08-02T11:51:59.246Z,78.28
2022-08-02T11:55:30.158Z,81.03
2022-08-02T11:59:05.597Z,81.90
2022-08-02T12:02:11.671Z,79.15
2022-08-02T12:05:44.726Z,78.00
2022-08-02T12:08:54.595Z,80.90
2022-08-02T12:11:59.153Z,80.60
2022-08-02T12:15:01.845Z,75.00
2022-08-02T12:18:29.312Z,68.53
2022-08-02T12:21:32.535Z,73.55
2022-08-02T12:24:36.726Z,77.65
2022-08-02T12:27:43.501Z,69.22
2022-08-02T12:30:58.440Z,67.00
2022-08-02T12:34:15.083Z,72.90
2022-08-02T12:37:27.702Z,69.22
2022-08-02T12:40:32.990Z,73.55
2022-08-02T12:43:43.326Z,72.20
2022-08-02T12:46:58.907Z,62.33
2022-08-02T12:50:27.821Z,74.07
2022-08-02T12:53:34.355Z,73.32
2022-08-02T12:56:38.919Z,82.53
2022-08-02T12:59:42.839Z,78.12
